Weather History for KADH - November, 2013

Change the Weather History Date:

Saturday, November 23, 2013

  Actual Average Record
Temperature  
Mean Temperature 34 °F -  
Max Temperature 37 °F 61 °F - (-1)
Min Temperature 30 °F 38 °F - (-1)
Degree Days  
Heating Degree Days 32    
Moisture  
Dew Point 29 °F    
Average Humidity 89    
Maximum Humidity 100    
Minimum Humidity 65    
Precipitation  
Precipitation 0.00 in - - ()
Sea Level Pressure  
Sea Level Pressure 30.57 in    
Wind  
Wind Speed 10 mph (NNE)    
Max Wind Speed 16 mph    
Max Gust Speed 24 mph    
Visibility 10 miles    
Events Rain    
Averages and records for this station are not official NWS values.
T = Trace of Precipitation, MM = Missing Value Source: NWS Daily Summary

Daily Weather History Graph

Daily Weather History Graph

Search for Another Location

Airport or City:

Trip Planner

Search our weather history database for the weather conditions in past years. The results will help you decide how hot, cold, wet, or windy it might be!

Date:

Astronomy

Nov. 23, 2013 Rise Set
Actual Time 7:08 AM CST 5:17 PM CST
Civil Twilight 6:41 AM CST 5:44 PM CST
Nautical Twilight 6:10 AM CST 6:15 PM CST
Astronomical Twilight 5:40 AM CST 6:45 PM CST
Moon 10:41 PM CST (11/23) 11:30 AM CST (11/23)
Length of Visible Light 11h 03m
Length of Day
10h 08m
Waning Gibbous, 69% of the Moon is Illuminated
Nov 23
Waning Gibbous
Nov 25
Last Quarter
Dec 2
New
Dec 9
First Quarter
Dec 17
Full

Hourly Weather History & Observations

Time (CST) Temp. Windchill Dew Point Humidity Pressure Visibility Wind Dir Wind Speed Gust Speed Precip Events Conditions
12:15 AM 32.0 °F 24.2 °F 32.0 °F 100% 30.51 in 7.0 mi North 9.2 mph - N/A   Drizzle
12:35 AM 30.2 °F 21.3 °F 30.2 °F 100% 30.51 in 10.0 mi North 10.4 mph 18.4 mph N/A Rain Light Freezing Rain
12:55 AM 30.2 °F 21.9 °F 30.2 °F 100% 30.51 in 10.0 mi North 9.2 mph - N/A   Light Freezing Rain
1:15 AM 30.2 °F 21.9 °F 30.2 °F 100% 30.51 in 10.0 mi North 9.2 mph - N/A   Overcast
1:35 AM 30.2 °F 22.6 °F 30.2 °F 100% 30.51 in 10.0 mi North 8.1 mph - N/A   Light Freezing Rain
1:55 AM 30.2 °F 21.9 °F 30.2 °F 100% 30.51 in 10.0 mi North 9.2 mph - N/A   Overcast
2:15 AM 30.2 °F 21.9 °F 30.2 °F 100% 30.50 in 10.0 mi North 9.2 mph - N/A   Overcast
2:35 AM 30.2 °F 21.3 °F 30.2 °F 100% 30.50 in 10.0 mi North 10.4 mph - N/A   Overcast
2:55 AM 30.2 °F 21.9 °F 30.2 °F 100% 30.51 in 10.0 mi North 9.2 mph - N/A   Overcast
3:15 AM 30.2 °F 22.6 °F 30.2 °F 100% 30.51 in 10.0 mi North 8.1 mph - N/A   Overcast
3:35 AM 30.2 °F 22.6 °F 30.2 °F 100% 30.51 in 10.0 mi North 8.1 mph - N/A   Overcast
3:55 AM 30.2 °F 22.6 °F 30.2 °F 100% 30.52 in 10.0 mi North 8.1 mph - N/A   Overcast
4:15 AM 30.2 °F 22.6 °F 30.2 °F 100% 30.51 in 10.0 mi North 8.1 mph - N/A   Overcast
4:35 AM 30.2 °F 21.3 °F 30.2 °F 100% 30.52 in 10.0 mi North 10.4 mph 17.3 mph N/A   Overcast
4:55 AM 30.2 °F 21.9 °F 30.2 °F 100% 30.53 in 10.0 mi North 9.2 mph - N/A   Overcast
5:15 AM 30.2 °F 23.4 °F 30.2 °F 100% 30.54 in 10.0 mi North 6.9 mph - N/A   Overcast
5:35 AM 30.2 °F 22.6 °F 30.2 °F 100% 30.53 in 10.0 mi North 8.1 mph - N/A   Overcast
5:55 AM 30.2 °F 22.6 °F 30.2 °F 100% 30.53 in 10.0 mi North 8.1 mph - N/A   Overcast
6:15 AM 30.2 °F 24.3 °F 30.2 °F 100% 30.54 in 10.0 mi North 5.8 mph - N/A   Overcast
6:35 AM 30.2 °F 20.2 °F 30.2 °F 100% 30.53 in 10.0 mi North 12.7 mph 18.4 mph N/A   Overcast
6:55 AM 30.2 °F 22.6 °F 30.2 °F 100% 30.55 in 10.0 mi North 8.1 mph - N/A   Overcast
7:15 AM 30.2 °F 21.9 °F 30.2 °F 100% 30.57 in 10.0 mi North 9.2 mph - N/A   Overcast
7:35 AM 32.0 °F 23.6 °F 32.0 °F 100% 30.56 in 10.0 mi North 10.4 mph - N/A   Overcast
7:55 AM 32.0 °F 24.8 °F 32.0 °F 100% 30.57 in 10.0 mi North 8.1 mph - N/A   Overcast
8:15 AM 32.0 °F 25.6 °F 32.0 °F 100% 30.59 in 10.0 mi North 6.9 mph - N/A   Overcast
8:35 AM 32.0 °F 25.6 °F 32.0 °F 100% 30.59 in 10.0 mi North 6.9 mph - N/A   Overcast
8:55 AM 32.0 °F 24.2 °F 32.0 °F 100% 30.59 in 10.0 mi North 9.2 mph - N/A   Overcast
9:15 AM 32.0 °F 24.2 °F 32.0 °F 100% 30.59 in 10.0 mi North 9.2 mph - N/A   Overcast
9:35 AM 32.0 °F 23.6 °F 32.0 °F 100% 30.60 in 10.0 mi North 10.4 mph - N/A   Overcast
9:55 AM 32.0 °F 24.2 °F 32.0 °F 100% 30.61 in 10.0 mi North 9.2 mph - N/A   Overcast
10:15 AM 32.0 °F 24.2 °F 32.0 °F 100% 30.61 in 10.0 mi North 9.2 mph - N/A   Overcast
10:35 AM 32.0 °F 23.6 °F 32.0 °F 100% 30.61 in 10.0 mi North 10.4 mph 17.3 mph N/A   Overcast
10:55 AM 32.0 °F 23.6 °F 32.0 °F 100% 30.61 in 10.0 mi NNE 10.4 mph - N/A   Overcast
11:15 AM 32.0 °F 24.2 °F 32.0 °F 100% 30.61 in 10.0 mi North 9.2 mph - N/A   Overcast
11:35 AM 32.0 °F 22.5 °F 32.0 °F 100% 30.60 in 10.0 mi North 12.7 mph - N/A   Overcast
11:55 AM 32.0 °F 22.5 °F 30.2 °F 93% 30.59 in 10.0 mi North 12.7 mph 16.1 mph N/A   Overcast
12:15 PM 32.0 °F 23.6 °F 30.2 °F 93% 30.59 in 10.0 mi NNE 10.4 mph 17.3 mph N/A   Overcast
12:35 PM 32.0 °F 23.0 °F 30.2 °F 93% 30.58 in 10.0 mi NNE 11.5 mph - N/A   Overcast
12:55 PM 33.8 °F 25.8 °F 32.0 °F 93% 30.58 in 10.0 mi North 10.4 mph 17.3 mph N/A   Overcast
1:15 PM 33.8 °F 24.8 °F 32.0 °F 93% 30.57 in 10.0 mi NNE 12.7 mph 19.6 mph N/A   Overcast
1:35 PM 33.8 °F 27.7 °F 32.0 °F 93% 30.57 in 10.0 mi NNE 6.9 mph - N/A   Overcast
1:55 PM 33.8 °F 26.4 °F 32.0 °F 93% 30.57 in 10.0 mi North 9.2 mph 18.4 mph N/A   Overcast
2:15 PM 35.6 °F 28.6 °F 32.0 °F 87% 30.56 in 10.0 mi North 9.2 mph - N/A   Overcast
2:35 PM 35.6 °F 30.7 °F 32.0 °F 87% 30.57 in 10.0 mi NNE 5.8 mph - N/A   Overcast
2:55 PM 35.6 °F 29.2 °F 32.0 °F 87% 30.58 in 10.0 mi North 8.1 mph - N/A   Overcast
3:15 PM 35.6 °F 29.2 °F 32.0 °F 87% 30.58 in 10.0 mi North 8.1 mph - N/A   Overcast
3:35 PM 37.4 °F 29.8 °F 32.0 °F 81% 30.58 in 10.0 mi North 11.5 mph 16.1 mph N/A   Overcast
3:55 PM 37.4 °F 28.5 °F 28.4 °F 70% 30.58 in 10.0 mi North 15.0 mph 20.7 mph N/A   Overcast
4:15 PM 35.6 °F 26.6 °F 26.6 °F 70% 30.58 in 10.0 mi North 13.8 mph 19.6 mph N/A   Overcast
4:35 PM 35.6 °F 28.0 °F 26.6 °F 70% 30.58 in 10.0 mi NNE 10.4 mph - N/A   Overcast
4:55 PM 35.6 °F 28.6 °F 24.8 °F 65% 30.58 in 10.0 mi NNE 9.2 mph - N/A   Overcast
5:15 PM 35.6 °F 29.2 °F 26.6 °F 70% 30.58 in 10.0 mi NNE 8.1 mph - N/A   Overcast
5:35 PM 35.6 °F 27.1 °F 26.6 °F 70% 30.58 in 10.0 mi NNE 12.7 mph 16.1 mph N/A   Overcast
5:55 PM 35.6 °F 27.1 °F 24.8 °F 65% 30.59 in 10.0 mi NNE 12.7 mph 19.6 mph N/A   Overcast
6:15 PM 35.6 °F 27.5 °F 26.6 °F 70% 30.59 in 10.0 mi NNE 11.5 mph 19.6 mph N/A   Overcast
6:35 PM 33.8 °F 24.8 °F 26.6 °F 75% 30.60 in 10.0 mi NNE 12.7 mph 19.6 mph N/A   Mostly Cloudy
6:55 PM 33.8 °F 25.8 °F 26.6 °F 75% 30.60 in 10.0 mi NNE 10.4 mph 18.4 mph N/A   Scattered Clouds
7:15 PM 33.8 °F 24.3 °F 26.6 °F 75% 30.60 in 10.0 mi NNE 13.8 mph 18.4 mph N/A   Clear
7:35 PM 32.0 °F 23.6 °F 26.6 °F 80% 30.60 in 10.0 mi NNE 10.4 mph - N/A   Clear
7:55 PM 32.0 °F 24.2 °F 26.6 °F 80% 30.59 in 10.0 mi NNE 9.2 mph - N/A   Clear
8:15 PM 32.0 °F 24.2 °F 26.6 °F 80% 30.59 in 10.0 mi NNE 9.2 mph - N/A   Clear
8:35 PM 32.0 °F 23.0 °F 26.6 °F 80% 30.60 in 10.0 mi NNE 11.5 mph 18.4 mph N/A   Clear
8:55 PM 32.0 °F 23.6 °F 26.6 °F 80% 30.60 in 10.0 mi NNE 10.4 mph 18.4 mph N/A   Clear
9:15 PM 32.0 °F 24.8 °F 26.6 °F 80% 30.60 in 10.0 mi NNE 8.1 mph - N/A   Clear
9:35 PM 32.0 °F 22.5 °F 26.6 °F 80% 30.59 in 10.0 mi NE 12.7 mph 19.6 mph N/A   Clear
9:55 PM 32.0 °F 21.6 °F 26.6 °F 80% 30.59 in 10.0 mi NNE 15.0 mph 20.7 mph N/A   Clear
10:15 PM 32.0 °F 23.6 °F 24.8 °F 75% 30.59 in 10.0 mi NE 10.4 mph 19.6 mph N/A   Clear
10:35 PM 32.0 °F 21.6 °F 24.8 °F 75% 30.59 in 10.0 mi NE 15.0 mph 23.0 mph N/A   Clear
10:55 PM 32.0 °F 22.1 °F 23.0 °F 69% 30.59 in 10.0 mi NNE 13.8 mph 24.2 mph N/A   Clear
11:15 PM 32.0 °F 21.2 °F 23.0 °F 69% 30.60 in 10.0 mi North 16.1 mph - N/A   Clear
11:35 PM 32.0 °F 21.6 °F 23.0 °F 69% 30.59 in 10.0 mi NNE 15.0 mph 23.0 mph N/A   Clear
11:55 PM 30.2 °F 20.8 °F 21.2 °F 69% 30.59 in 10.0 mi NNE 11.5 mph 17.3 mph N/A   Clear